createdAt,value
2023-02-28T00:02:31.231Z,82.58
2023-02-28T00:05:39.823Z,86.87
2023-02-28T00:08:46.612Z,97.83
2023-02-28T00:11:53.027Z,97.50
2023-02-28T00:14:59.839Z,96.78
2023-02-28T00:18:06.465Z,106.14
2023-02-28T00:21:15.883Z,112.29
2023-02-28T00:24:21.749Z,109.49
2023-02-28T00:27:28.528Z,116.67
2023-02-28T00:30:34.491Z,116.26
2023-02-28T00:33:45.047Z,117.90
2023-02-28T00:36:53.543Z,121.99
2023-02-28T00:40:00.416Z,140.05
2023-02-28T00:43:06.802Z,160.33
2023-02-28T00:46:13.757Z,170.87
2023-02-28T00:49:19.656Z,166.80
2023-02-28T00:52:29.115Z,193.86
2023-02-28T00:55:34.978Z,185.98
2023-02-28T00:58:41.777Z,171.66
2023-02-28T01:01:49.991Z,174.79
2023-02-28T01:04:58.024Z,189.97
2023-02-28T01:08:06.643Z,178.52
2023-02-28T01:11:16.018Z,186.87
2023-02-28T01:14:23.182Z,179.58
2023-02-28T01:17:30.086Z,177.41
2023-02-28T01:20:36.930Z,184.53
2023-02-28T01:23:47.058Z,178.63
2023-02-28T01:26:52.940Z,167.38
2023-02-28T01:30:01.786Z,185.31
2023-02-28T01:33:07.614Z,218.07
2023-02-28T01:36:19.208Z,185.48
2023-02-28T01:39:27.772Z,179.13
2023-02-28T01:42:34.515Z,174.22
2023-02-28T01:45:41.152Z,175.11
2023-02-28T01:48:55.344Z,168.66
2023-02-28T01:52:01.670Z,166.25
2023-02-28T01:55:16.113Z,174.47
2023-02-28T01:58:22.856Z,171.83
2023-02-28T02:01:34.753Z,165.49
2023-02-28T02:04:51.241Z,178.84
2023-02-28T02:08:06.261Z,171.73
2023-02-28T02:11:25.772Z,172.46
2023-02-28T02:14:55.269Z,189.51
2023-02-28T02:18:13.106Z,179.27
2023-02-28T02:22:00.093Z,170.95
2023-02-28T02:25:36.402Z,179.65
2023-02-28T02:29:33.254Z,173.55
2023-02-28T02:33:21.895Z,171.58
2023-02-28T02:36:39.596Z,181.93
2023-02-28T02:40:08.641Z,190.02
2023-02-28T02:43:28.588Z,188.49
2023-02-28T02:46:43.667Z,188.78
2023-02-28T02:49:59.729Z,186.25
2023-02-28T02:53:13.110Z,193.29
2023-02-28T02:56:30.190Z,197.45
2023-02-28T02:59:42.071Z,185.75
2023-02-28T03:02:53.436Z,185.48
2023-02-28T03:06:04.996Z,188.24
2023-02-28T03:09:21.171Z,183.38
2023-02-28T03:12:43.921Z,172.41
2023-02-28T03:16:17.055Z,165.97
2023-02-28T03:20:01.640Z,168.03
2023-02-28T03:23:23.491Z,160.27
2023-02-28T03:26:33.787Z,160.50
2023-02-28T03:29:50.334Z,161.42
2023-02-28T03:33:07.825Z,168.59
2023-02-28T03:36:24.027Z,181.62
2023-02-28T03:39:43.559Z,181.38
2023-02-28T03:43:04.923Z,180.26
2023-02-28T03:46:22.328Z,180.65
2023-02-28T03:49:39.357Z,179.97
2023-02-28T03:52:54.450Z,178.87
2023-02-28T03:56:12.773Z,183.74
2023-02-28T03:59:37.211Z,194.97
2023-02-28T04:02:44.275Z,211.29
2023-02-28T04:05:57.287Z,218.37
2023-02-28T04:09:04.933Z,224.13
2023-02-28T04:12:12.109Z,242.64
2023-02-28T04:15:24.001Z,243.12
2023-02-28T04:18:30.010Z,240.06
2023-02-28T04:21:40.197Z,244.02
2023-02-28T04:24:48.042Z,247.19
2023-02-28T04:27:58.698Z,243.46
2023-02-28T04:31:14.426Z,241.01
2023-02-28T04:34:22.413Z,236.55
2023-02-28T04:37:30.493Z,236.48
2023-02-28T04:40:37.156Z,238.76
2023-02-28T04:43:43.117Z,231.50
2023-02-28T04:46:53.460Z,237.35
2023-02-28T04:49:59.462Z,234.73
2023-02-28T04:53:06.113Z,253.75
2023-02-28T04:56:16.184Z,285.27
2023-02-28T04:59:22.886Z,274.19
2023-02-28T05:02:31.455Z,275.27
2023-02-28T05:05:38.241Z,262.31
2023-02-28T05:08:44.922Z,259.85
2023-02-28T05:11:51.550Z,263.01
2023-02-28T05:14:57.479Z,273.58
2023-02-28T05:18:12.404Z,287.20
2023-02-28T05:21:35.285Z,296.14
2023-02-28T05:24:43.491Z,306.14
2023-02-28T05:27:55.248Z,300.61
2023-02-28T05:31:08.718Z,288.13
2023-02-28T05:34:18.996Z,275.45
2023-02-28T05:37:25.705Z,262.48
2023-02-28T05:40:31.665Z,260.67
2023-02-28T05:43:38.985Z,261.38
2023-02-28T05:46:44.854Z,271.07
2023-02-28T05:49:54.687Z,286.93
2023-02-28T05:53:00.626Z,293.99
2023-02-28T05:56:09.257Z,301.56
2023-02-28T05:59:15.484Z,304.62
2023-02-28T06:02:22.624Z,300.25
2023-02-28T06:05:31.859Z,322.47
2023-02-28T06:08:38.546Z,312.99
2023-02-28T06:11:44.608Z,312.35
2023-02-28T06:14:51.304Z,316.04
2023-02-28T06:17:57.617Z,341.73
2023-02-28T06:21:07.354Z,367.72
2023-02-28T06:24:13.543Z,372.52
2023-02-28T06:27:20.698Z,362.49
2023-02-28T06:30:29.375Z,354.24
2023-02-28T06:33:36.101Z,338.90
2023-02-28T06:36:46.277Z,333.52
2023-02-28T06:39:57.041Z,325.83
2023-02-28T06:43:15.672Z,330.01
2023-02-28T06:46:28.392Z,328.47
2023-02-28T06:49:35.017Z,333.10
2023-02-28T06:52:44.476Z,337.55
2023-02-28T06:55:55.055Z,332.09
2023-02-28T06:59:11.357Z,318.08
2023-02-28T07:02:17.171Z,316.34
2023-02-28T07:05:24.014Z,306.43
2023-02-28T07:08:32.920Z,325.92
2023-02-28T07:11:39.678Z,310.64
2023-02-28T07:14:45.683Z,277.30
2023-02-28T07:17:52.414Z,279.83
2023-02-28T07:20:58.381Z,281.05
2023-02-28T07:24:08.543Z,281.04
2023-02-28T07:27:26.839Z,271.66
2023-02-28T07:30:33.565Z,322.52
2023-02-28T07:33:41.847Z,344.27
2023-02-28T07:36:48.582Z,399.51
2023-02-28T07:39:58.424Z,377.40
2023-02-28T07:43:07.922Z,371.61
2023-02-28T07:46:17.833Z,325.46
2023-02-28T07:49:25.202Z,273.29
2023-02-28T07:52:31.195Z,289.62
2023-02-28T07:55:40.503Z,265.90
2023-02-28T07:58:46.364Z,265.83
2023-02-28T08:01:53.493Z,256.54
2023-02-28T08:04:59.569Z,267.38
2023-02-28T08:08:09.458Z,253.30
2023-02-28T08:11:18.905Z,245.39
2023-02-28T08:14:26.960Z,237.74
2023-02-28T08:17:35.333Z,269.96
2023-02-28T08:20:42.893Z,227.33
2023-02-28T08:23:50.797Z,234.97
2023-02-28T08:27:00.593Z,214.02
2023-02-28T08:30:09.324Z,210.22
2023-02-28T08:33:17.126Z,191.56
2023-02-28T08:36:23.972Z,182.08
2023-02-28T08:39:30.778Z,186.53
2023-02-28T08:42:40.073Z,180.85
2023-02-28T08:45:46.991Z,163.04
2023-02-28T08:49:00.474Z,162.60
2023-02-28T08:52:14.724Z,161.03
2023-02-28T08:55:20.757Z,185.10
2023-02-28T08:58:30.683Z,190.28
2023-02-28T09:01:37.845Z,174.39
2023-02-28T09:04:46.576Z,182.55
2023-02-28T09:07:53.812Z,156.48
2023-02-28T09:11:07.714Z,148.65
2023-02-28T09:14:18.650Z,155.86
2023-02-28T09:17:25.608Z,137.75
2023-02-28T09:20:36.467Z,152.39
2023-02-28T09:23:43.443Z,154.79
2023-02-28T09:26:56.801Z,162.08
2023-02-28T09:30:16.482Z,153.26
2023-02-28T09:33:24.787Z,151.47
2023-02-28T09:36:44.791Z,159.68
2023-02-28T09:39:51.371Z,154.48
2023-02-28T09:43:03.711Z,167.29
2023-02-28T09:46:35.684Z,156.86
2023-02-28T09:49:50.217Z,159.91
2023-02-28T09:52:59.742Z,162.33
2023-02-28T09:56:13.272Z,160.03
2023-02-28T09:59:38.165Z,144.63
2023-02-28T10:03:24.858Z,149.57
2023-02-28T10:06:39.383Z,174.83
2023-02-28T10:09:46.479Z,174.53
2023-02-28T10:13:00.006Z,150.60
2023-02-28T10:16:15.425Z,156.19
2023-02-28T10:19:34.732Z,162.49
2023-02-28T10:22:57.266Z,156.67
2023-02-28T10:26:17.207Z,145.93
2023-02-28T10:29:23.988Z,140.17
2023-02-28T10:32:35.563Z,149.12
2023-02-28T10:35:44.920Z,137.91
2023-02-28T10:38:52.871Z,138.95
2023-02-28T10:41:59.619Z,144.37
2023-02-28T10:45:18.510Z,145.46
2023-02-28T10:48:38.209Z,141.93
2023-02-28T10:51:46.746Z,145.42
2023-02-28T10:54:53.985Z,148.29
2023-02-28T10:57:59.961Z,152.28
2023-02-28T11:01:07.029Z,145.94
2023-02-28T11:04:37.073Z,156.34
2023-02-28T11:07:55.733Z,146.93
2023-02-28T11:11:09.108Z,148.13
2023-02-28T11:14:26.136Z,158.16
2023-02-28T11:17:35.662Z,159.20
2023-02-28T11:20:44.549Z,164.46
2023-02-28T11:24:02.817Z,155.52
2023-02-28T11:27:11.804Z,153.87
2023-02-28T11:30:40.327Z,155.85
2023-02-28T11:33:52.662Z,159.69
2023-02-28T11:37:04.895Z,163.99
2023-02-28T11:40:19.766Z,160.03
2023-02-28T11:43:55.856Z,164.35
2023-02-28T11:47:14.137Z,162.76
2023-02-28T11:50:42.246Z,166.41
2023-02-28T11:54:18.983Z,169.83
2023-02-28T11:57:52.751Z,168.96
2023-02-28T12:01:19.004Z,166.74
2023-02-28T12:04:46.085Z,167.46
2023-02-28T12:08:19.711Z,166.81
2023-02-28T12:11:53.661Z,163.32
2023-02-28T12:15:32.372Z,167.43
2023-02-28T12:19:10.411Z,163.94
2023-02-28T12:22:33.863Z,172.78
2023-02-28T12:25:59.904Z,176.48
2023-02-28T12:29:21.585Z,176.02
2023-02-28T12:32:45.769Z,176.07
2023-02-28T12:35:59.864Z,175.94
2023-02-28T12:39:14.150Z,198.81
2023-02-28T12:42:32.456Z,192.87
2023-02-28T12:45:50.270Z,179.05
2023-02-28T12:49:14.468Z,178.36
2023-02-28T12:52:32.669Z,173.20
2023-02-28T12:55:54.404Z,173.46
2023-02-28T12:59:08.231Z,180.63
2023-02-28T13:02:59.462Z,183.61
2023-02-28T13:06:53.523Z,184.70
2023-02-28T13:10:08.804Z,187.39
2023-02-28T13:13:30.804Z,195.04
2023-02-28T13:17:01.293Z,181.63
2023-02-28T13:20:08.309Z,198.00
2023-02-28T13:24:03.260Z,204.79
2023-02-28T13:27:43.909Z,186.47
2023-02-28T13:31:12.559Z,200.75
2023-02-28T13:34:20.855Z,210.90
2023-02-28T13:37:48.907Z,231.86
2023-02-28T13:40:55.005Z,195.69
2023-02-28T13:44:11.780Z,196.33
2023-02-28T13:47:33.744Z,178.61
2023-02-28T13:50:42.964Z,187.00
2023-02-28T13:54:13.771Z,191.86
2023-02-28T13:57:46.101Z,184.20
2023-02-28T14:01:44.398Z,181.60
2023-02-28T14:05:06.191Z,179.72
2023-02-28T14:08:22.800Z,201.62
2023-02-28T14:11:36.061Z,196.39
2023-02-28T14:15:00.915Z,194.67
2023-02-28T14:18:27.269Z,187.30
2023-02-28T14:21:38.418Z,183.72
2023-02-28T14:25:14.818Z,185.84
2023-02-28T14:28:45.860Z,187.74
2023-02-28T14:32:12.845Z,187.35
2023-02-28T14:36:06.107Z,183.68
2023-02-28T14:39:26.737Z,187.16
2023-02-28T14:42:39.260Z,189.02
2023-02-28T14:45:46.135Z,178.51
2023-02-28T14:48:54.424Z,174.26
2023-02-28T14:52:19.147Z,175.81
2023-02-28T14:55:32.134Z,179.57
2023-02-28T14:58:39.012Z,174.39
2023-02-28T15:01:45.008Z,176.08
2023-02-28T15:05:00.981Z,174.28
2023-02-28T15:08:18.941Z,178.06
2023-02-28T15:11:26.134Z,180.76
2023-02-28T15:14:32.342Z,201.44
2023-02-28T15:17:40.463Z,228.48
2023-02-28T15:20:49.506Z,247.53
2023-02-28T15:24:04.834Z,218.81
2023-02-28T15:27:19.022Z,228.13
2023-02-28T15:30:33.854Z,209.79
2023-02-28T15:33:40.560Z,255.61
2023-02-28T15:36:47.299Z,287.97
2023-02-28T15:39:58.601Z,273.72
2023-02-28T15:43:11.505Z,280.98
2023-02-28T15:46:19.204Z,294.80
2023-02-28T15:49:27.786Z,318.43
2023-02-28T15:52:44.926Z,280.61
2023-02-28T15:56:04.985Z,254.01
2023-02-28T15:59:20.455Z,235.17
2023-02-28T16:02:36.650Z,259.22
2023-02-28T16:05:42.724Z,261.82
2023-02-28T16:08:52.374Z,227.85
2023-02-28T16:12:06.618Z,214.62
2023-02-28T16:15:27.252Z,209.91
2023-02-28T16:18:35.728Z,221.67
2023-02-28T16:21:44.672Z,355.62
2023-02-28T16:24:50.731Z,258.76
2023-02-28T16:28:10.853Z,313.94
2023-02-28T16:31:20.271Z,319.68
2023-02-28T16:34:31.350Z,259.40
2023-02-28T16:37:39.616Z,259.64
2023-02-28T16:40:46.992Z,279.97
2023-02-28T16:44:01.378Z,267.22
2023-02-28T16:47:15.727Z,285.75
2023-02-28T16:50:29.652Z,315.63
2023-02-28T16:53:36.696Z,371.12
2023-02-28T16:56:51.193Z,416.33
2023-02-28T17:00:01.889Z,436.66
2023-02-28T17:03:11.693Z,554.51
2023-02-28T17:06:26.032Z,625.00
2023-02-28T17:09:42.389Z,721.55
2023-02-28T17:12:49.341Z,664.29
2023-02-28T17:15:58.575Z,745.96
2023-02-28T17:19:10.176Z,1347.36
2023-02-28T17:22:16.119Z,1121.97
2023-02-28T17:25:24.490Z,901.13
2023-02-28T17:28:34.613Z,933.77
2023-02-28T17:31:47.790Z,803.12
2023-02-28T17:34:54.575Z,973.64
2023-02-28T17:38:01.468Z,767.82
2023-02-28T17:41:15.641Z,811.25
2023-02-28T17:44:22.700Z,779.84
2023-02-28T17:47:31.386Z,660.39
2023-02-28T17:50:38.111Z,832.78
2023-02-28T17:53:44.612Z,620.67
2023-02-28T17:56:51.669Z,486.80
2023-02-28T18:00:02.752Z,427.17
2023-02-28T18:03:35.572Z,437.11
2023-02-28T18:06:51.238Z,452.61
2023-02-28T18:09:58.057Z,445.09
2023-02-28T18:13:04.906Z,487.39
2023-02-28T18:16:12.873Z,483.79
2023-02-28T18:19:21.959Z,419.09
2023-02-28T18:22:28.878Z,418.84
2023-02-28T18:25:34.774Z,457.64
2023-02-28T18:28:42.734Z,525.21
2023-02-28T18:31:49.215Z,543.52
2023-02-28T18:34:58.799Z,551.50
2023-02-28T18:38:09.075Z,545.64
2023-02-28T18:41:16.413Z,535.30
2023-02-28T18:44:22.561Z,540.39
2023-02-28T18:47:29.473Z,428.10
2023-02-28T18:50:42.005Z,367.83
2023-02-28T18:53:50.207Z,383.42
2023-02-28T18:56:56.472Z,399.03
2023-02-28T19:00:03.391Z,426.13
2023-02-28T19:03:09.334Z,470.93
2023-02-28T19:06:19.279Z,526.33
2023-02-28T19:09:25.222Z,390.42
2023-02-28T19:12:31.936Z,438.75
2023-02-28T19:15:37.870Z,432.84
2023-02-28T19:18:45.380Z,515.85
2023-02-28T19:21:55.503Z,636.41
2023-02-28T19:25:03.070Z,620.41
2023-02-28T19:28:09.134Z,522.67
2023-02-28T19:31:19.885Z,507.34
2023-02-28T19:34:26.979Z,709.31
2023-02-28T19:37:40.654Z,535.04
2023-02-28T19:40:46.890Z,572.52
2023-02-28T19:43:55.720Z,668.07
2023-02-28T19:47:01.779Z,717.66
2023-02-28T19:50:10.187Z,670.24
2023-02-28T19:53:18.771Z,633.93
2023-02-28T19:56:26.307Z,591.62
2023-02-28T19:59:39.221Z,810.80
2023-02-28T20:02:46.927Z,805.95
2023-02-28T20:06:05.191Z,677.53
2023-02-28T20:09:15.644Z,727.76
2023-02-28T20:12:24.682Z,836.46
2023-02-28T20:15:32.566Z,606.91
2023-02-28T20:18:39.116Z,484.26
2023-02-28T20:21:45.999Z,449.94
2023-02-28T20:24:54.603Z,466.81
2023-02-28T20:28:01.506Z,528.69
2023-02-28T20:31:15.444Z,532.06
2023-02-28T20:34:27.340Z,631.17
2023-02-28T20:37:33.386Z,654.66
2023-02-28T20:40:42.979Z,618.19
2023-02-28T20:43:49.540Z,611.15
2023-02-28T20:46:56.430Z,624.07
2023-02-28T20:50:02.355Z,603.10
2023-02-28T20:53:09.115Z,608.60
2023-02-28T20:56:21.407Z,639.20
2023-02-28T20:59:28.232Z,651.19
2023-02-28T21:02:34.439Z,647.95
2023-02-28T21:05:41.171Z,694.29
2023-02-28T21:08:48.212Z,776.23
2023-02-28T21:11:59.249Z,790.06
2023-02-28T21:15:05.375Z,730.08
2023-02-28T21:18:12.235Z,687.70
2023-02-28T21:21:22.258Z,715.00
2023-02-28T21:24:29.033Z,743.55
2023-02-28T21:27:38.029Z,764.99
2023-02-28T21:30:44.831Z,982.05
2023-02-28T21:33:51.449Z,1236.18
2023-02-28T21:36:58.269Z,1306.29
2023-02-28T21:40:04.301Z,1627.39
2023-02-28T21:43:13.777Z,1438.69
2023-02-28T21:46:23.651Z,1386.64
2023-02-28T21:49:31.049Z,1644.42
2023-02-28T21:52:37.094Z,1939.20
2023-02-28T21:55:44.113Z,1731.71
2023-02-28T21:59:00.820Z,1512.76
2023-02-28T22:02:10.903Z,1353.98
2023-02-28T22:05:16.874Z,2212.66
2023-02-28T22:08:23.967Z,1626.62
2023-02-28T22:11:30.199Z,1448.49
2023-02-28T22:14:41.924Z,1374.13
2023-02-28T22:17:48.253Z,1368.46
2023-02-28T22:20:58.205Z,1379.55
2023-02-28T22:24:04.223Z,1429.05
2023-02-28T22:27:11.096Z,1418.15
2023-02-28T22:30:21.111Z,1401.35
2023-02-28T22:33:29.791Z,1383.77
2023-02-28T22:36:36.502Z,1451.75
2023-02-28T22:39:44.056Z,1442.58
2023-02-28T22:42:50.929Z,1395.91
2023-02-28T22:46:03.862Z,1391.07
2023-02-28T22:49:10.138Z,1393.41
2023-02-28T22:52:16.955Z,1439.76
2023-02-28T22:55:22.968Z,1422.29
2023-02-28T22:58:30.945Z,1377.86
2023-02-28T23:01:40.853Z,1376.23
2023-02-28T23:04:47.771Z,1365.69
2023-02-28T23:07:53.801Z,1350.55
2023-02-28T23:11:01.030Z,1419.01
2023-02-28T23:14:08.785Z,1431.59
2023-02-28T23:17:18.177Z,1311.51
2023-02-28T23:20:24.947Z,1306.30
2023-02-28T23:23:32.073Z,1352.28
2023-02-28T23:26:38.195Z,1404.69
2023-02-28T23:29:45.235Z,1468.39
2023-02-28T23:32:54.107Z,1420.82
2023-02-28T23:36:04.314Z,1427.52
2023-02-28T23:39:10.303Z,1436.03
2023-02-28T23:42:17.110Z,1416.76
2023-02-28T23:45:23.307Z,1423.62
2023-02-28T23:48:32.973Z,1425.71
2023-02-28T23:51:39.592Z,1430.18
2023-02-28T23:54:47.068Z,1448.22
2023-02-28T23:57:53.026Z,1453.92
